Time;durP1;ratioP1;P1;durP2;ratioP2;P2;SDS_P1;SDS_P2;PMS_P1;PMS_P2;Temp;Humidity;BMP_temperature;BMP_pressure;BME280_temperature;BME280_humidity;BME280_pressure;Samples;Min_cycle;Max_cycle;Signal;HPM_P1;HPM_P2
2021/12/24 00:01:55;;;;;;;46.40;26.92;;;;;;;8.54;100.00;100083.81;5075503;28;20048;-70
2021/12/24 00:04:23;;;;;;;40.90;21.33;;;;;;;8.61;100.00;100081.03;5084914;28;20447;-71
2021/12/24 00:06:50;;;;;;;33.05;18.08;;;;;;;8.61;100.00;100075.50;5070366;28;20052;-72
2021/12/24 00:09:22;;;;;;;44.42;21.25;;;;;;;8.63;100.00;100079.44;5069703;28;20048;-70
2021/12/24 00:11:50;;;;;;;46.58;19.80;;;;;;;8.67;100.00;100068.41;5067205;28;20139;-71
2021/12/24 00:14:17;;;;;;;33.03;15.30;;;;;;;8.68;100.00;100069.97;5068043;28;20497;-71
2021/12/24 00:16:50;;;;;;;42.45;20.33;;;;;;;8.65;100.00;100070.75;5076540;28;20407;-71
2021/12/24 00:35:40;;;;;;;35.10;18.02;;;;;;;8.72;100.00;100063.25;5080557;28;20062;-73
2021/12/24 00:38:10;;;;;;;29.83;13.20;;;;;;;8.83;100.00;100054.91;5080090;28;20493;-72
2021/12/24 00:40:45;;;;;;;34.30;14.98;;;;;;;8.82;100.00;100045.06;5080366;28;20143;-71
2021/12/24 00:43:14;;;;;;;35.60;15.60;;;;;;;8.78;100.00;100041.56;5067949;28;20044;-71
2021/12/24 00:45:43;;;;;;;52.13;23.02;;;;;;;8.91;100.00;100048.97;5075796;28;20058;-71
2021/12/24 00:48:15;;;;;;;30.25;14.68;;;;;;;8.83;100.00;100052.16;5079368;28;20515;-71
2021/12/24 00:50:53;;;;;;;35.65;16.15;;;;;;;8.74;100.00;100044.31;5076680;28;20054;-71
2021/12/24 00:56:05;;;;;;;31.75;14.60;;;;;;;8.80;100.00;100050.19;5068232;28;20389;-71
2021/12/24 00:58:32;;;;;;;34.13;16.58;;;;;;;8.80;100.00;100042.72;5071004;28;20056;-70
2021/12/24 01:00:59;;;;;;;50.78;21.63;;;;;;;8.91;100.00;100039.91;5076157;28;20888;-70
2021/12/24 01:03:27;;;;;;;42.03;24.20;;;;;;;8.74;100.00;100047.06;5070540;28;20049;-74
2021/12/24 01:05:53;;;;;;;20.13;10.35;;;;;;;8.83;100.00;100039.16;5072498;28;20152;-71
2021/12/24 01:08:20;;;;;;;37.05;17.55;;;;;;;8.82;100.00;100043.13;5074372;28;20079;-72
2021/12/24 01:10:51;;;;;;;26.83;11.50;;;;;;;8.87;100.00;100050.19;5073231;28;20052;-73
2021/12/24 01:13:17;;;;;;;32.90;16.23;;;;;;;8.91;100.00;100045.44;5066705;28;20044;-70
2021/12/24 01:16:26;;;;;;;36.53;19.85;;;;;;;8.84;100.00;100054.50;5069645;28;20050;-71
2021/12/24 01:19:00;;;;;;;28.83;11.75;;;;;;;8.86;100.00;100032.84;5072793;28;20795;-72
2021/12/24 01:24:19;;;;;;;24.85;11.07;;;;;;;8.88;100.00;100029.69;5073093;28;20058;-71
2021/12/24 01:42:47;;;;;;;31.15;14.20;;;;;;;8.90;100.00;100019.81;5071030;28;20131;-70
2021/12/24 01:45:17;;;;;;;37.58;20.88;;;;;;;8.85;100.00;100028.53;5078322;28;20598;-70
2021/12/24 01:47:44;;;;;;;26.95;12.70;;;;;;;8.89;100.00;100021.00;5078751;28;20071;-71
2021/12/24 01:50:12;;;;;;;22.50;10.75;;;;;;;8.94;100.00;100012.28;5068174;28;20052;-71
2021/12/24 01:52:39;;;;;;;28.10;13.98;;;;;;;8.92;100.00;100017.44;5074350;28;20517;-71
2021/12/24 01:55:07;;;;;;;37.13;19.85;;;;;;;8.92;100.00;100013.91;5070303;28;20045;-71
2021/12/24 01:57:36;;;;;;;35.72;17.90;;;;;;;9.03;100.00;100006.34;5066520;28;20052;-71
2021/12/24 02:00:08;;;;;;;28.98;12.95;;;;;;;8.94;100.00;100006.78;5072017;28;20052;-71
2021/12/24 02:02:35;;;;;;;22.30;9.25;;;;;;;8.99;100.00;100009.13;5065089;28;20046;-71
2021/12/24 02:05:02;;;;;;;32.47;16.33;;;;;;;9.00;100.00;100004.38;5070903;28;20044;-70
2021/12/24 02:07:29;;;;;;;31.02;19.65;;;;;;;8.97;100.00;100005.97;5068762;28;20049;-70
2021/12/24 02:09:56;;;;;;;20.67;10.02;;;;;;;9.07;100.00;100007.88;5070883;28;20051;-71
2021/12/24 02:12:25;;;;;;;26.85;12.50;;;;;;;9.02;100.00;100002.81;5066757;28;20045;-72
2021/12/24 02:14:55;;;;;;;22.52;9.20;;;;;;;9.04;100.00;100011.44;5070875;28;20393;-73
2021/12/24 02:30:45;;;;;;;27.73;13.68;;;;;;;9.14;100.00;100002.31;5073692;28;20135;-71
2021/12/24 02:33:11;;;;;;;35.22;17.95;;;;;;;9.11;100.00;100005.13;5069986;28;20567;-71
2021/12/24 02:35:38;;;;;;;35.50;18.88;;;;;;;9.13;100.00;99999.97;5085610;28;20058;-72
2021/12/24 02:38:05;;;;;;;27.30;12.73;;;;;;;9.20;100.00;99994.38;5073569;28;20060;-72
2021/12/24 02:40:32;;;;;;;30.52;14.18;;;;;;;9.13;100.00;99991.69;5071495;28;20494;-71
2021/12/24 02:42:59;;;;;;;34.88;15.02;;;;;;;9.14;100.00;99988.53;5071575;28;20040;-71
2021/12/24 02:45:32;;;;;;;23.92;12.88;;;;;;;9.14;100.00;99994.03;5077664;28;20058;-72
2021/12/24 02:56:04;;;;;;;32.17;15.18;;;;;;;9.23;100.00;99972.28;5070874;28;20050;-71
2021/12/24 02:58:38;;;;;;;28.25;12.93;;;;;;;9.20;100.00;99975.88;5080342;28;20073;-72
2021/12/24 03:01:06;;;;;;;31.45;16.33;;;;;;;9.23;100.00;99969.53;5071957;28;20055;-72
2021/12/24 03:03:33;;;;;;;36.25;18.27;;;;;;;9.25;100.00;99971.91;5075599;28;20136;-72
2021/12/24 03:05:59;;;;;;;40.95;23.42;;;;;;;9.23;100.00;99964.00;5075849;28;20049;-71
2021/12/24 03:08:26;;;;;;;28.85;13.75;;;;;;;9.28;100.00;99960.81;5070624;28;20051;-72
2021/12/24 03:10:54;;;;;;;31.27;15.07;;;;;;;9.25;100.00;99969.13;5071961;28;20048;-73
2021/12/24 03:13:23;;;;;;;34.58;15.32;;;;;;;9.28;100.00;99966.34;5068696;28;20053;-71
2021/12/24 03:15:50;;;;;;;36.30;22.38;;;;;;;9.26;100.00;99963.22;5079832;28;20051;-70
2021/12/24 03:18:23;;;;;;;25.30;12.43;;;;;;;9.29;100.00;99972.66;5070343;28;20135;-70
2021/12/24 03:20:59;;;;;;;34.58;15.32;;;;;;;9.34;100.00;99975.75;5069548;28;20048;-70
2021/12/24 03:23:36;;;;;;;29.55;14.98;;;;;;;9.30;100.00;99975.00;5080448;28;20048;-71
2021/12/24 03:26:04;;;;;;;24.52;11.57;;;;;;;9.36;100.00;99967.06;5072659;28;20062;-70
2021/12/24 03:28:31;;;;;;;32.83;15.02;;;;;;;9.31;100.00;99960.00;5076914;28;20088;-71
2021/12/24 03:30:59;;;;;;;31.33;16.35;;;;;;;9.38;100.00;99954.41;5067636;28;20151;-72
2021/12/24 03:33:26;;;;;;;46.78;23.77;;;;;;;9.44;100.00;99960.28;5071478;28;20114;-73
2021/12/24 03:35:53;;;;;;;41.90;20.85;;;;;;;9.42;100.00;99955.16;5083349;28;20062;-72
2021/12/24 03:38:20;;;;;;;35.28;15.27;;;;;;;9.44;100.00;99963.03;5069483;28;20083;-71
2021/12/24 03:40:46;;;;;;;30.15;15.20;;;;;;;9.35;100.00;99969.03;5084661;28;20058;-70
2021/12/24 03:43:13;;;;;;;29.27;12.93;;;;;;;9.43;100.00;99959.53;5077438;28;20052;-71
2021/12/24 03:45:55;;;;;;;21.65;10.07;;;;;;;9.41;100.00;99956.38;5068338;28;20049;-73
2021/12/24 03:49:00;;;;;;;21.95;11.63;;;;;;;9.43;100.00;99967.81;5080105;28;20052;-71
2021/12/24 03:56:28;;;;;;;;;;;;;;;9.51;100.00;99979.56;5077598;28;20056;-71
2021/12/24 03:58:55;;;;;;;35.67;15.88;;;;;;;9.51;100.00;99971.25;5080293;28;20003;-71
2021/12/24 04:01:21;;;;;;;38.58;17.08;;;;;;;9.49;100.00;99968.16;5073467;28;20052;-69
2021/12/24 04:03:48;;;;;;;41.85;18.65;;;;;;;9.47;100.00;99971.31;5086497;28;20252;-70
2021/12/24 04:06:15;;;;;;;48.60;26.02;;;;;;;9.48;100.00;99963.78;5069335;28;20098;-71
2021/12/24 04:08:42;;;;;;;25.60;12.90;;;;;;;9.52;100.00;99968.09;5068936;28;20053;-70
2021/12/24 04:11:09;;;;;;;57.90;30.52;;;;;;;9.55;100.00;99977.56;5068140;28;20064;-71
2021/12/24 04:13:36;;;;;;;54.90;27.63;;;;;;;9.55;100.00;99985.84;5067696;28;20056;-71
2021/12/24 04:16:04;;;;;;;50.50;25.80;;;;;;;9.51;100.00;99969.28;5076419;28;20051;-70
2021/12/24 04:26:28;;;;;;;41.28;19.48;;;;;;;9.64;100.00;99970.38;5081376;28;20123;-70
2021/12/24 04:28:55;;;;;;;52.30;22.63;;;;;;;9.55;100.00;99978.34;5083416;28;20047;-70
2021/12/24 04:31:29;;;;;;;43.15;22.42;;;;;;;9.53;100.00;99989.03;5073337;28;20049;-73
2021/12/24 04:33:59;;;;;;;41.63;17.13;;;;;;;9.59;100.00;99976.31;5068936;28;20131;-70
2021/12/24 04:39:49;;;;;;;46.47;24.77;;;;;;;9.58;100.00;99988.56;5071658;28;20052;-70
2021/12/24 05:03:36;;;;;;;47.65;22.23;;;;;;;9.65;100.00;99994.03;5067975;28;20070;-73
2021/12/24 05:08:42;;;;;;;30.92;15.13;;;;;;;9.68;100.00;100000.72;5076595;28;20647;-72
2021/12/24 05:11:12;;;;;;;68.60;32.80;;;;;;;9.73;100.00;99981.75;5075401;28;20048;-73
2021/12/24 05:13:39;;;;;;;68.13;36.13;;;;;;;9.65;100.00;99976.69;5072294;28;20044;-71
2021/12/24 05:16:18;;;;;;;52.25;23.88;;;;;;;9.72;100.00;99980.16;5068543;28;20048;-71
2021/12/24 05:21:35;;;;;;;38.22;18.67;;;;;;;9.69;100.00;99978.19;5069786;28;20056;-70
2021/12/24 05:24:05;;;;;;;52.63;27.85;;;;;;;9.71;100.00;99977.78;5069218;28;20504;-71
2021/12/24 05:26:34;;;;;;;35.05;16.77;;;;;;;9.72;100.00;99984.91;5074337;28;20139;-71
2021/12/24 05:29:04;;;;;;;60.15;28.33;;;;;;;9.80;100.00;99983.63;5079850;28;20427;-69
2021/12/24 05:31:32;;;;;;;34.17;16.77;;;;;;;9.74;100.00;99980.53;5072252;28;20091;-71
2021/12/24 05:34:00;;;;;;;81.60;36.83;;;;;;;9.81;100.00;99977.69;5067695;28;20064;-70
2021/12/24 05:36:26;;;;;;;34.20;16.83;;;;;;;9.78;100.00;99991.53;5069766;28;20052;-72
2021/12/24 05:38:53;;;;;;;37.03;13.40;;;;;;;9.81;100.00;99994.28;5073829;28;20052;-71
2021/12/24 05:41:22;;;;;;;65.05;28.40;;;;;;;9.87;100.00;99987.13;5071757;28;20182;-72
2021/12/24 05:43:50;;;;;;;47.60;21.58;;;;;;;9.77;100.00;99987.22;5067265;28;20052;-71
2021/12/24 05:46:22;;;;;;;68.28;31.38;;;;;;;9.87;100.00;99992.66;5068755;28;20709;-70
2021/12/24 05:48:49;;;;;;;65.55;34.13;;;;;;;9.76;100.00;100002.22;5067798;28;20059;-73
2021/12/24 05:51:15;;;;;;;51.78;23.08;;;;;;;9.82;100.00;99986.78;5072241;28;20076;-72
2021/12/24 05:53:41;;;;;;;60.15;25.25;;;;;;;9.85;100.00;100000.56;5076739;28;20052;-71
2021/12/24 05:56:08;;;;;;;30.88;14.30;;;;;;;9.83;100.00;100002.16;5077692;28;20101;-71
2021/12/24 05:58:35;;;;;;;38.83;15.35;;;;;;;9.87;100.00;99994.63;5069884;28;20055;-70
2021/12/24 06:01:02;;;;;;;44.53;20.73;;;;;;;9.90;100.00;99991.84;5077302;28;20066;-72
2021/12/24 06:03:29;;;;;;;54.63;25.75;;;;;;;9.89;100.00;99998.53;5072499;28;20525;-72
2021/12/24 06:05:56;;;;;;;70.35;29.02;;;;;;;9.87;100.00;100003.69;5072237;28;20159;-72
2021/12/24 06:08:22;;;;;;;46.50;19.60;;;;;;;9.84;100.00;99998.19;5071744;28;20140;-71
2021/12/24 06:10:49;;;;;;;77.43;37.97;;;;;;;9.88;100.00;100008.03;5070974;28;20127;-71
2021/12/24 06:13:15;;;;;;;34.95;16.20;;;;;;;9.82;100.00;100012.41;5077230;28;20058;-73
2021/12/24 06:15:45;;;;;;;57.20;25.90;;;;;;;9.88;100.00;100012.75;5071369;28;20057;-71
2021/12/24 06:18:20;;;;;;;42.85;18.02;;;;;;;9.82;100.00;100011.66;5069615;28;20052;-72
2021/12/24 06:20:47;;;;;;;;;;;;;;;9.87;100.00;100003.69;5077700;28;20049;-72
2021/12/24 06:23:14;;;;;;;60.63;26.48;;;;;;;9.86;100.00;100001.34;5069579;28;19920;-71
2021/12/24 06:25:41;;;;;;;61.17;27.80;;;;;;;9.78;100.00;100010.88;5070109;28;20135;-71
2021/12/24 06:28:07;;;;;;;46.22;19.13;;;;;;;9.84;100.00;100003.72;5084007;28;20075;-71
2021/12/24 06:30:34;;;;;;;43.35;18.90;;;;;;;9.83;100.00;100000.16;5079147;28;20715;-71
2021/12/24 06:33:01;;;;;;;35.55;15.90;;;;;;;9.84;100.00;100003.72;5070329;28;20048;-72
2021/12/24 06:35:27;;;;;;;44.40;20.35;;;;;;;9.85;100.00;99995.03;5078770;28;20040;-71
2021/12/24 06:37:56;;;;;;;21.30;10.68;;;;;;;9.84;100.00;100015.56;5086453;28;20056;-71
2021/12/24 06:40:24;;;;;;;36.25;15.68;;;;;;;9.88;100.00;100012.75;5076044;28;20056;-71
2021/12/24 06:42:51;;;;;;;58.25;28.42;;;;;;;9.81;100.00;100018.34;5073088;28;20569;-72
2021/12/24 06:45:22;;;;;;;37.97;14.48;;;;;;;9.87;100.00;100006.47;5080266;28;20135;-72
2021/12/24 06:47:51;;;;;;;51.85;23.75;;;;;;;9.87;100.00;100002.91;5073409;28;20058;-72
2021/12/24 06:50:18;;;;;;;34.15;14.75;;;;;;;9.82;100.00;100012.41;5069595;28;20048;-71
2021/12/24 06:52:45;;;;;;;44.35;20.00;;;;;;;9.86;100.00;100007.63;5070018;28;20056;-71
2021/12/24 06:55:12;;;;;;;33.65;14.82;;;;;;;9.83;100.00;100018.75;5070679;28;20067;-73
2021/12/24 06:57:40;;;;;;;47.70;23.98;;;;;;;9.84;100.00;100012.81;5071064;28;20054;-71
2021/12/24 07:00:13;;;;;;;57.72;29.90;;;;;;;9.77;100.00;100010.13;5070267;28;20155;-72
2021/12/24 07:02:40;;;;;;;29.38;14.60;;;;;;;9.84;100.00;100015.56;5069558;28;20052;-71
2021/12/24 07:05:10;;;;;;;71.00;27.73;;;;;;;9.91;100.00;100017.47;5069296;28;20131;-71
2021/12/24 07:07:36;;;;;;;32.88;14.63;;;;;;;9.86;100.00;100017.94;5071558;28;20059;-72
2021/12/24 07:10:04;;;;;;;16.98;7.78;;;;;;;9.83;100.00;100016.75;5075655;28;20333;-72
2021/12/24 07:12:31;;;;;;;76.80;34.25;;;;;;;9.67;100.00;100026.75;5071484;28;20062;-71
2021/12/24 07:14:58;;;;;;;68.90;28.98;;;;;;;9.65;100.00;100029.16;5068151;28;20040;-72
2021/12/24 07:17:25;;;;;;;29.92;12.07;;;;;;;9.62;100.00;100025.22;5069555;28;20054;-72
2021/12/24 07:19:51;;;;;;;53.60;25.02;;;;;;;9.63;100.00;100015.75;5083374;28;20056;-73
2021/12/24 07:22:18;;;;;;;34.85;18.40;;;;;;;9.59;100.00;100022.50;5080722;28;20135;-72
2021/12/24 07:24:45;;;;;;;72.65;33.15;;;;;;;9.65;100.00;100013.38;5070773;28;20048;-71
2021/12/24 07:27:12;;;;;;;65.15;26.08;;;;;;;9.65;100.00;100016.13;5070570;28;20052;-72
2021/12/24 07:29:39;;;;;;;27.50;11.45;;;;;;;9.63;100.00;100020.50;5081601;28;20105;-72
2021/12/24 07:32:06;;;;;;;65.45;32.40;;;;;;;9.65;100.00;100018.13;5089747;28;20075;-72
2021/12/24 07:34:33;;;;;;;51.10;24.38;;;;;;;9.69;100.00;100030.69;5090599;28;20055;-73
2021/12/24 07:37:00;;;;;;;36.22;15.20;;;;;;;9.67;100.00;100035.84;5077631;28;20127;-72
2021/12/24 07:39:26;;;;;;;62.78;24.15;;;;;;;9.71;100.00;100041.31;5070166;28;20052;-74
2021/12/24 07:41:53;;;;;;;40.88;17.58;;;;;;;9.69;100.00;100041.72;5068945;28;20055;-72
2021/12/24 07:44:20;;;;;;;37.58;17.33;;;;;;;9.67;100.00;100041.38;5083347;28;20083;-73
2021/12/24 07:46:55;;;;;;;26.88;12.27;;;;;;;9.66;100.00;100042.53;5069882;28;20582;-72
2021/12/24 07:54:23;;;;;;;35.63;14.95;;;;;;;9.66;100.00;100037.03;5087939;28;20111;-72
2021/12/24 07:56:49;;;;;;;58.20;26.13;;;;;;;9.71;100.00;100058.69;5080833;28;20476;-74
2021/12/24 07:59:16;;;;;;;34.15;14.65;;;;;;;9.72;100.00;100060.25;5074577;28;20717;-71
2021/12/24 08:01:46;;;;;;;66.30;28.13;;;;;;;9.75;100.00;100055.88;5083968;28;20152;-72
2021/12/24 08:04:14;;;;;;;39.97;18.40;;;;;;;9.68;100.00;100047.66;5077785;28;20056;-72
2021/12/24 08:06:41;;;;;;;29.65;12.60;;;;;;;9.74;100.00;100052.38;5069480;28;20511;-73
2021/12/24 08:09:08;;;;;;;42.15;17.55;;;;;;;9.72;100.00;100046.44;5072211;28;20306;-74
2021/12/24 08:11:36;;;;;;;53.03;26.17;;;;;;;9.76;100.00;100047.19;5073471;28;20048;-72
2021/12/24 08:14:05;;;;;;;35.35;15.80;;;;;;;9.80;100.00;100039.69;5068472;28;20140;-71
2021/12/24 08:16:34;;;;;;;33.90;16.95;;;;;;;9.79;100.00;100034.56;5068021;28;20578;-71
2021/12/24 08:19:02;;;;;;;45.10;18.65;;;;;;;9.77;100.00;100037.72;5076241;28;20056;-72
2021/12/24 08:21:29;;;;;;;31.77;13.95;;;;;;;9.69;100.00;100044.50;5067859;28;20139;-72
2021/12/24 08:23:57;;;;;;;64.45;26.60;;;;;;;9.83;100.00;100030.56;5067792;28;20067;-71
2021/12/24 08:26:23;;;;;;;13.82;7.65;;;;;;;9.82;100.00;100031.00;5074405;28;20159;-70
2021/12/24 08:28:50;;;;;;;31.30;11.32;;;;;;;9.82;100.00;100028.22;5076338;28;20497;-70
2021/12/24 08:31:17;;;;;;;24.90;9.18;;;;;;;9.81;100.00;100023.88;5068504;28;20071;-75
2021/12/24 08:33:44;;;;;;;25.65;8.75;;;;;;;9.84;100.00;100026.63;5077259;28;20059;-72
2021/12/24 08:36:11;;;;;;;24.10;9.07;;;;;;;9.79;100.00;100023.50;5085412;28;20044;-72
2021/12/24 08:38:39;;;;;;;34.55;13.38;;;;;;;9.85;100.00;100025.41;5075161;28;20084;-73
2021/12/24 08:41:06;;;;;;;31.45;13.60;;;;;;;9.83;100.00;100025.03;5071929;28;20060;-71
2021/12/24 08:43:33;;;;;;;46.55;18.52;;;;;;;9.81;100.00;100016.38;5078003;28;20117;-71
2021/12/24 08:46:00;;;;;;;28.70;10.40;;;;;;;9.82;100.00;100011.66;5073960;28;20056;-72
2021/12/24 08:48:27;;;;;;;27.42;11.57;;;;;;;9.78;100.00;100011.66;5073867;28;20056;-70
2021/12/24 08:50:54;;;;;;;39.05;15.30;;;;;;;9.76;100.00;100016.03;5077777;28;20102;-72
2021/12/24 08:53:23;;;;;;;22.58;9.13;;;;;;;9.81;100.00;100021.13;5067943;28;20481;-71
2021/12/24 08:55:50;;;;;;;28.00;12.50;;;;;;;9.80;100.00;100017.59;5068014;28;20093;-70
2021/12/24 08:58:17;;;;;;;53.78;21.00;;;;;;;9.85;100.00;100014.38;5066993;28;20113;-70
2021/12/24 09:00:44;;;;;;;37.60;16.92;;;;;;;9.87;100.00;100019.47;5068380;28;20521;-71
2021/12/24 09:03:11;;;;;;;33.95;13.35;;;;;;;9.79;100.00;100016.00;5069729;28;20136;-71
2021/12/24 09:05:37;;;;;;;31.33;14.90;;;;;;;9.80;100.00;100025.88;5078413;28;20150;-72
2021/12/24 09:08:04;;;;;;;44.85;21.55;;;;;;;9.77;100.00;100020.38;5067182;28;20103;-73
2021/12/24 09:10:31;;;;;;;46.28;16.85;;;;;;;9.92;100.00;100019.03;5068515;28;20082;-71
2021/12/24 09:12:58;;;;;;;24.60;11.38;;;;;;;9.87;100.00;100019.47;5068038;28;20795;-71
2021/12/24 09:15:30;;;;;;;35.50;16.20;;;;;;;9.84;100.00;100014.78;5068240;28;20044;-72
2021/12/24 09:17:58;;;;;;;34.65;15.23;;;;;;;9.83;100.00;100013.97;5068624;28;20117;-73
2021/12/24 09:20:32;;;;;;;48.10;16.90;;;;;;;9.86;100.00;99996.59;5071972;28;20110;-71
2021/12/24 09:23:00;;;;;;;49.03;17.63;;;;;;;9.84;100.00;99999.00;5082203;28;20130;-71
2021/12/24 09:25:28;;;;;;;36.33;16.63;;;;;;;9.88;100.00;100002.50;5070324;28;20140;-70
2021/12/24 09:27:56;;;;;;;40.08;15.15;;;;;;;9.85;100.00;99997.78;5086450;28;20584;-71
2021/12/24 09:30:24;;;;;;;40.30;14.38;;;;;;;9.85;100.00;99999.75;5078761;28;20462;-69
2021/12/24 09:32:52;;;;;;;35.60;16.10;;;;;;;9.84;100.00;100001.75;5081570;28;20397;-70
2021/12/24 09:35:23;;;;;;;36.30;15.20;;;;;;;9.85;100.00;99992.25;5075575;28;20509;-72
2021/12/24 09:37:49;;;;;;;38.30;15.38;;;;;;;9.86;100.00;99996.59;5075664;28;20476;-71
2021/12/24 09:40:18;;;;;;;38.25;16.33;;;;;;;9.85;100.00;99997.78;5073257;28;20048;-72
2021/12/24 09:42:46;;;;;;;45.90;19.45;;;;;;;9.89;100.00;99993.00;5069479;28;20177;-72
2021/12/24 09:45:13;;;;;;;37.00;16.13;;;;;;;9.92;100.00;99989.44;5079800;28;20067;-74
2021/12/24 09:47:41;;;;;;;42.25;16.40;;;;;;;9.92;100.00;99985.88;5072004;28;20059;-71
2021/12/24 09:50:10;;;;;;;21.80;8.10;;;;;;;9.93;100.00;99988.22;5066390;28;20136;-71
2021/12/24 09:52:41;;;;;;;45.38;18.60;;;;;;;9.92;100.00;99994.94;5082470;28;20148;-71
2021/12/24 09:55:20;;;;;;;34.78;13.00;;;;;;;9.99;100.00;99983.81;5074099;28;20036;-71
2021/12/24 09:57:48;;;;;;;31.48;14.02;;;;;;;9.99;100.00;99991.34;5070442;28;20102;-71
2021/12/24 10:00:21;;;;;;;26.55;11.13;;;;;;;9.98;100.00;99992.53;5071539;28;20122;-71
2021/12/24 10:02:52;;;;;;;44.63;18.75;;;;;;;10.00;100.00;99984.63;5070796;28;20059;-74
2021/12/24 10:05:22;;;;;;;46.67;20.33;;;;;;;10.13;100.00;99994.75;5076195;28;20052;-71
2021/12/24 10:07:49;;;;;;;41.80;19.25;;;;;;;10.10;100.00;99990.03;5077876;28;20052;-70
2021/12/24 10:10:25;;;;;;;26.45;10.43;;;;;;;10.07;100.00;99981.81;5070284;28;20079;-75
2021/12/24 10:12:53;;;;;;;35.30;13.20;;;;;;;10.04;100.00;99997.22;5074109;28;20147;-72
2021/12/24 10:15:19;;;;;;;21.65;8.65;;;;;;;10.07;100.00;99998.41;5070948;28;20158;-71
2021/12/24 10:17:46;;;;;;;31.58;12.57;;;;;;;10.04;100.00;99997.22;5067530;28;20508;-75
2021/12/24 10:20:16;;;;;;;28.50;10.20;;;;;;;10.09;100.00;99993.22;5072088;28;20045;-74
2021/12/24 10:22:44;;;;;;;45.00;18.40;;;;;;;10.09;100.00;100005.06;5075539;28;20079;-73
2021/12/24 10:25:13;;;;;;;28.90;11.82;;;;;;;10.07;100.00;99996.44;5072305;28;20548;-74
2021/12/24 10:27:42;;;;;;;37.58;16.40;;;;;;;10.00;100.00;100001.19;5081397;28;20150;-73
2021/12/24 10:30:29;;;;;;;39.22;17.02;;;;;;;10.01;100.00;100006.31;5075331;28;20135;-72
2021/12/24 10:32:57;;;;;;;44.60;22.05;;;;;;;9.86;100.00;100001.34;5072141;28;20139;-72
2021/12/24 10:35:29;;;;;;;49.22;19.40;;;;;;;9.96;100.00;100009.50;5076794;28;20135;-73
2021/12/24 10:38:17;;;;;;;27.30;7.13;;;;;;;9.95;100.00;99998.88;5080413;28;20044;-71
2021/12/24 10:40:57;;;;;;;23.05;8.77;;;;;;;9.92;100.00;99994.94;5063170;28;20169;-75
2021/12/24 10:43:35;;;;;;;18.08;7.88;;;;;;;9.87;100.00;99998.19;5072018;28;20064;-72
2021/12/24 10:46:24;;;;;;;28.15;12.38;;;;;;;9.92;100.00;99992.19;5071492;28;20144;-72
2021/12/24 10:49:17;;;;;;;49.28;17.10;;;;;;;9.89;100.00;99990.25;5081956;28;20504;-74
2021/12/24 10:52:12;;;;;;;45.78;15.48;;;;;;;9.96;100.00;99981.13;5074711;28;20048;-71
2021/12/24 10:55:01;;;;;;;44.08;15.68;;;;;;;10.03;100.00;99975.50;5072009;28;20056;-71
2021/12/24 10:57:33;;;;;;;42.60;15.85;;;;;;;10.03;100.00;99989.34;5074810;28;20540;-74
2021/12/24 11:00:13;;;;;;;29.63;11.10;;;;;;;10.07;100.00;99985.38;5077384;28;20079;-72
2021/12/24 11:02:41;;;;;;;44.75;15.10;;;;;;;10.13;100.00;99986.47;5070699;28;20750;-71
2021/12/24 11:05:28;;;;;;;25.70;9.73;;;;;;;10.05;100.00;99982.19;5072187;28;20060;-72
2021/12/24 11:07:57;;;;;;;36.22;15.88;;;;;;;10.11;100.00;99969.53;5076627;28;20087;-74
2021/12/24 11:10:31;;;;;;;26.65;10.02;;;;;;;10.14;100.00;99984.50;5072437;28;20523;-72
2021/12/24 11:13:09;;;;;;;12.18;5.57;;;;;;;10.14;100.00;99977.00;5076386;28;20113;-72
2021/12/24 11:15:39;;;;;;;40.15;16.58;;;;;;;10.08;100.00;99984.16;5075497;28;20091;-72
2021/12/24 11:18:18;;;;;;;38.17;13.93;;;;;;;10.24;100.00;99984.38;5070086;28;20044;-73
2021/12/24 11:20:51;;;;;;;20.65;9.98;;;;;;;10.21;100.00;99985.22;5073334;28;20143;-73
2021/12/24 11:23:19;;;;;;;21.80;7.65;;;;;;;10.16;100.00;99987.66;5076708;28;20051;-72
2021/12/24 11:25:55;;;;;;;23.42;9.77;;;;;;;10.14;100.00;99990.81;5078670;28;20146;-72
2021/12/24 11:28:23;;;;;;;24.13;8.70;;;;;;;10.17;100.00;99989.97;5077706;28;20139;-72
2021/12/24 11:30:56;;;;;;;29.65;10.73;;;;;;;10.24;100.00;99983.59;5070645;28;20147;-74
2021/12/24 11:33:26;;;;;;;24.80;10.80;;;;;;;10.23;100.00;99987.56;5063998;28;20084;-73
2021/12/24 11:35:54;;;;;;;27.70;12.52;;;;;;;10.27;100.00;99989.06;5065086;28;20055;-72
2021/12/24 11:38:32;;;;;;;39.95;16.00;;;;;;;10.23;100.00;100001.38;5070407;28;20127;-72
2021/12/24 11:41:01;;;;;;;27.23;10.65;;;;;;;10.23;100.00;99996.63;5065979;28;20424;-72
2021/12/24 11:43:31;;;;;;;51.22;21.92;;;;;;;10.30;100.00;99993.78;5068426;28;20046;-73
2021/12/24 11:46:01;;;;;;;48.78;20.50;;;;;;;10.33;100.00;100001.25;5065161;28;20549;-74
2021/12/24 11:48:31;;;;;;;18.48;6.30;;;;;;;10.26;100.00;99997.81;5073716;28;20060;-73
2021/12/24 11:51:00;;;;;;;39.30;15.95;;;;;;;10.21;100.00;99998.25;5073236;28;20105;-73
2021/12/24 11:53:30;;;;;;;45.65;19.85;;;;;;;10.22;100.00;99981.25;5075070;28;20132;-73
2021/12/24 11:56:07;;;;;;;45.25;18.10;;;;;;;10.20;100.00;99993.91;5069347;28;20058;-75
2021/12/24 11:58:46;;;;;;;51.03;19.55;;;;;;;10.20;100.00;99989.16;5073462;28;20301;-70
2021/12/24 12:01:17;;;;;;;43.20;10.13;;;;;;;10.11;100.00;99986.13;5080579;28;20479;-74
2021/12/24 12:03:52;;;;;;;24.35;8.07;;;;;;;10.10;100.00;99984.53;5069317;28;20087;-73
2021/12/24 12:06:24;;;;;;;42.08;20.35;;;;;;;10.12;100.00;99982.13;5073656;28;20097;-72
2021/12/24 12:08:55;;;;;;;47.70;17.92;;;;;;;10.06;100.00;99972.72;5073177;28;20061;-73
2021/12/24 12:11:34;;;;;;;34.42;14.10;;;;;;;10.05;100.00;99971.13;5067198;28;20052;-72
2021/12/24 12:14:10;;;;;;;19.23;7.40;;;;;;;10.03;100.00;99981.03;5071128;28;20887;-74
2021/12/24 12:16:42;;;;;;;48.15;22.30;;;;;;;10.12;100.00;99965.56;5078259;28;20131;-73
2021/12/24 12:19:26;;;;;;;19.25;7.03;;;;;;;10.07;100.00;99974.31;5077714;28;20072;-72
2021/12/24 12:22:47;;;;;;;12.23;6.97;;;;;;;10.09;100.00;99973.88;5076659;28;20135;-72
2021/12/24 12:25:31;;;;;;;24.98;10.68;;;;;;;10.04;100.00;99960.50;5068143;28;21174;-72
2021/12/24 12:28:07;;;;;;;30.42;11.88;;;;;;;10.06;100.00;99956.16;5073490;28;20078;-72
2021/12/24 12:30:48;;;;;;;29.15;12.18;;;;;;;10.04;100.00;99952.19;5069136;28;20090;-75
2021/12/24 12:33:31;;;;;;;52.83;22.60;;;;;;;10.04;100.00;99960.50;5069786;28;20059;-72
2021/12/24 12:36:02;;;;;;;46.45;19.55;;;;;;;10.08;100.00;99959.28;5082159;28;20157;-72
2021/12/24 12:38:39;;;;;;;47.42;21.60;;;;;;;10.13;100.00;99956.06;5070769;28;20044;-72
2021/12/24 12:41:34;;;;;;;23.17;7.03;;;;;;;10.05;100.00;99954.56;5065304;28;20512;-73
2021/12/24 12:44:07;;;;;;;17.45;9.25;;;;;;;10.10;100.00;99962.41;5069211;28;20214;-72
2021/12/24 12:46:39;;;;;;;34.00;14.13;;;;;;;10.13;100.00;99961.59;5063240;28;20320;-72
2021/12/24 12:49:08;;;;;;;31.30;11.25;;;;;;;10.10;100.00;99956.88;5064787;28;20060;-71
2021/12/24 12:51:51;;;;;;;36.83;15.93;;;;;;;10.15;100.00;99952.88;5061895;28;20051;-72
2021/12/24 12:54:30;;;;;;;56.60;21.45;;;;;;;10.25;100.00;99946.44;5073579;28;20132;-71
2021/12/24 12:57:09;;;;;;;50.67;17.38;;;;;;;10.22;100.00;99948.06;5075111;28;20048;-71
2021/12/24 12:59:36;;;;;;;42.95;17.52;;;;;;;10.23;100.00;99946.88;5071736;28;20071;-71
2021/12/24 13:02:03;;;;;;;27.98;12.52;;;;;;;10.17;100.00;99953.28;5069838;28;20505;-72
2021/12/24 13:04:30;;;;;;;30.52;13.70;;;;;;;10.18;100.00;99950.09;5070654;28;20056;-71
2021/12/24 13:06:57;;;;;;;50.05;20.73;;;;;;;10.19;100.00;99948.09;5070968;28;20494;-70
2021/12/24 13:09:33;;;;;;;58.55;25.25;;;;;;;10.20;100.00;99947.69;5065592;28;20046;-71
2021/12/24 13:12:01;;;;;;;;;;;;;;;10.21;100.00;99951.25;5080270;28;20591;-71
2021/12/24 13:14:30;;;;;;;51.92;20.60;;;;;;;10.10;100.00;99948.59;5074496;28;19956;-71